Time;durP1;ratioP1;P1;durP2;ratioP2;P2;SDS_P1;SDS_P2;PMS_P1;PMS_P2;Temp;Humidity;BMP_temperature;BMP_pressure;BME280_temperature;BME280_humidity;BME280_pressure;Samples;Min_cycle;Max_cycle;Signal;HPM_P1;HPM_P2
2024/04/12 00:00:21;;;;;;;18.13;9.63;;;13.70;99.90;;;18.52;55.70;99966.44;5531044;25;20077;-76
2024/04/12 00:02:56;;;;;;;18.27;8.98;;;13.60;99.90;;;18.50;56.23;99969.25;5541820;25;20349;-76
2024/04/12 00:05:24;;;;;;;18.08;9.63;;;13.60;99.90;;;18.49;55.98;99966.69;5528602;25;20345;-75
2024/04/12 00:08:04;;;;;;;22.27;8.40;;;13.60;99.90;;;18.45;55.76;99970.56;5536842;25;20054;-75
2024/04/12 00:10:32;;;;;;;21.30;8.93;;;13.60;99.90;;;18.44;56.42;99967.06;5525385;25;20010;-76
2024/04/12 00:13:07;;;;;;;15.95;8.95;;;13.50;99.90;;;18.42;55.99;99961.06;5533164;25;20008;-76
2024/04/12 00:15:35;;;;;;;17.10;8.90;;;13.50;99.90;;;18.41;56.17;99964.69;5533137;25;19997;-77
2024/04/12 00:18:06;;;;;;;23.52;9.40;;;13.60;99.90;;;18.43;56.30;99962.78;5550873;25;20001;-77
2024/04/12 00:20:39;;;;;;;17.83;8.77;;;13.50;99.90;;;18.45;56.21;99962.63;5523921;25;20072;-76
2024/04/12 00:23:11;;;;;;;24.25;9.23;;;13.50;99.90;;;18.46;55.88;99957.19;5528814;25;20016;-76
2024/04/12 00:25:39;;;;;;;18.90;9.68;;;13.50;99.90;;;18.46;56.56;99956.34;5557506;25;20005;-76
2024/04/12 00:28:14;;;;;;;20.45;9.45;;;13.80;99.90;;;18.47;56.04;99952.72;5524556;26;20005;-76
2024/04/12 00:30:42;;;;;;;21.83;9.32;;;13.50;99.90;;;18.42;56.34;99953.13;5525348;25;20046;-76
2024/04/12 00:33:12;;;;;;;17.50;9.77;;;13.60;99.90;;;18.42;56.26;99941.69;5557865;25;20023;-76
2024/04/12 00:35:49;;;;;;;20.42;10.15;;;13.50;99.90;;;18.39;56.29;99944.59;5512197;26;20012;-78
2024/04/12 00:38:23;;;;;;;20.67;9.38;;;13.40;99.90;;;18.31;56.54;99942.63;5524997;25;20020;-77
2024/04/12 00:40:52;;;;;;;24.55;10.88;;;13.40;99.90;;;18.32;56.63;99940.81;5526079;26;20050;-78
2024/04/12 00:43:27;;;;;;;19.73;9.25;;;13.40;99.90;;;18.29;56.76;99943.75;5525596;25;20002;-77
2024/04/12 00:45:56;;;;;;;17.33;9.35;;;13.40;99.90;;;18.27;56.14;99940.41;5459261;26;20359;-77
2024/04/12 00:48:26;;;;;;;21.90;9.88;;;13.40;99.90;;;18.26;56.89;99938.72;5488556;26;20014;-77
2024/04/12 00:50:54;;;;;;;21.38;9.75;;;13.30;99.90;;;18.22;56.69;99942.59;5516387;25;20088;-77
2024/04/12 00:53:28;;;;;;;15.02;9.55;;;13.40;99.90;;;18.21;57.01;99948.91;5532319;25;20580;-76
2024/04/12 00:56:00;;;;;;;16.02;9.80;;;13.30;99.90;;;18.17;56.57;99928.94;5525199;26;20006;-76
2024/04/12 00:58:33;;;;;;;;;;;13.30;99.90;;;17.97;56.99;99938.63;5525149;26;20006;-78
2024/04/12 01:01:10;;;;;;;16.75;9.00;;;13.30;99.90;;;18.16;56.66;99941.34;5534244;25;19933;-77
2024/04/12 01:03:46;;;;;;;18.35;9.95;;;13.20;99.90;;;18.20;56.72;99944.56;5522636;25;20081;-77
2024/04/12 01:06:16;;;;;;;19.20;9.55;;;13.20;99.90;;;18.20;56.84;99942.75;5556426;25;20017;-77
2024/04/12 01:08:52;;;;;;;22.25;9.38;;;13.20;99.90;;;18.23;57.15;99944.28;5533337;25;20094;-78
2024/04/12 01:11:21;;;;;;;18.97;9.33;;;13.20;99.90;;;18.19;56.51;99940.22;5542241;25;20004;-78
2024/04/12 01:13:58;;;;;;;22.70;9.55;;;13.20;99.90;;;18.10;56.96;99937.44;5523207;25;20001;-76
2024/04/12 01:16:26;;;;;;;18.52;9.57;;;13.20;99.90;;;18.06;56.75;99943.97;5540247;25;20004;-77
2024/04/12 01:19:02;;;;;;;17.38;8.85;;;13.10;99.90;;;18.04;57.41;99940.63;5559572;25;20353;-76
2024/04/12 01:21:31;;;;;;;14.05;7.90;;;13.20;99.90;;;18.02;57.52;99942.56;5528011;25;20005;-76
2024/04/12 01:24:07;;;;;;;18.73;8.13;;;13.20;99.90;;;17.97;57.11;99939.47;5563147;25;20000;-76
2024/04/12 01:26:39;;;;;;;21.07;9.37;;;13.20;99.90;;;17.98;57.46;99941.13;5561700;25;20004;-77
2024/04/12 01:29:14;;;;;;;16.08;8.07;;;13.20;99.90;;;17.98;57.53;99941.13;5499415;25;20005;-77
2024/04/12 01:31:41;;;;;;;16.50;7.95;;;13.40;99.90;;;17.99;57.53;99936.69;5501180;25;20455;-76
2024/04/12 01:34:19;;;;;;;14.02;7.65;;;13.20;99.90;;;18.00;57.36;99933.91;5491660;26;20016;-77
2024/04/12 01:36:47;;;;;;;17.70;7.55;;;13.50;99.90;;;18.03;57.22;99949.53;5522412;26;20009;-76
2024/04/12 01:39:17;;;;;;;15.40;7.45;;;13.20;99.90;;;18.05;57.77;99944.94;5555983;25;20001;-77
2024/04/12 01:41:47;;;;;;;13.68;7.18;;;13.30;99.90;;;18.08;56.97;99941.16;5561103;25;20005;-77
2024/04/12 01:44:24;;;;;;;19.17;6.95;;;13.20;99.90;;;18.05;57.43;99938.78;5560482;25;20345;-77
2024/04/12 01:46:52;;;;;;;18.80;7.53;;;13.20;99.90;;;18.04;57.24;99951.22;5561969;25;20004;-77
2024/04/12 01:49:23;;;;;;;19.50;7.43;;;13.20;99.90;;;18.06;57.49;99946.63;5555355;25;20005;-77
2024/04/12 01:51:56;;;;;;;11.95;6.95;;;13.20;99.90;;;17.99;57.18;99941.97;5540633;25;20016;-77
2024/04/12 01:54:32;;;;;;;16.95;7.93;;;13.20;99.90;;;17.95;57.14;99941.41;5561665;25;20005;-77
2024/04/12 01:57:03;;;;;;;17.25;7.75;;;13.20;99.90;;;17.92;57.13;99939.03;5562536;25;20019;-76
2024/04/12 01:59:33;;;;;;;14.82;7.65;;;13.10;99.90;;;17.94;57.64;99946.84;5561144;25;20004;-77
2024/04/12 02:02:06;;;;;;;13.10;7.63;;;13.00;99.90;;;17.94;57.34;99947.69;5559225;25;20016;-76
2024/04/12 02:04:37;;;;;;;15.85;7.65;;;13.00;99.90;;;17.96;57.59;99942.25;5535865;25;20016;-76
2024/04/12 02:07:04;;;;;;;15.98;6.80;;;13.00;99.90;;;17.95;57.05;99946.69;5522805;26;20012;-77
2024/04/12 02:09:40;;;;;;;17.30;7.32;;;13.00;99.90;;;17.96;57.21;99943.09;5509319;25;19998;-77
2024/04/12 02:12:10;;;;;;;12.88;7.40;;;13.00;99.90;;;17.96;56.96;99945.75;5523316;25;20005;-77
2024/04/12 02:14:42;;;;;;;14.30;6.18;;;13.10;99.90;;;17.97;57.43;99944.78;5520049;26;19997;-77
2024/04/12 02:17:16;;;;;;;11.88;5.88;;;13.10;99.90;;;18.00;57.38;99943.66;5531400;25;20016;-77
2024/04/12 02:19:46;;;;;;;19.50;6.07;;;13.10;99.90;;;18.00;57.51;99943.66;5561247;25;20017;-76
2024/04/12 02:22:14;;;;;;;12.85;5.32;;;13.00;99.90;;;17.98;56.80;99941.13;5554302;25;20017;-76
2024/04/12 02:24:44;;;;;;;9.60;4.85;;;13.00;99.90;;;17.94;57.29;99933.59;5520226;25;20013;-77
2024/04/12 02:27:15;;;;;;;19.65;6.20;;;13.00;99.90;;;17.92;57.21;99939.03;5528801;25;20005;-76
2024/04/12 02:29:46;;;;;;;10.27;5.50;;;13.00;99.90;;;17.89;57.52;99936.66;5503014;25;20539;-76
2024/04/12 02:32:14;;;;;;;19.15;6.40;;;13.00;99.90;;;17.87;57.76;99941.25;5554749;25;20013;-77
2024/04/12 02:34:44;;;;;;;17.00;6.22;;;12.90;99.90;;;17.86;57.58;99947.50;5539444;25;20012;-78
2024/04/12 02:37:12;;;;;;;15.80;5.93;;;12.90;99.90;;;17.84;57.70;99938.88;5522849;26;20001;-78
2024/04/12 02:39:42;;;;;;;14.35;6.45;;;12.90;99.90;;;17.78;57.96;99938.56;5523546;26;20005;-76
2024/04/12 02:42:13;;;;;;;14.65;6.30;;;12.80;99.90;;;17.72;57.40;99937.25;5525736;25;20004;-76
2024/04/12 02:44:47;;;;;;;13.80;6.18;;;12.80;99.90;;;17.66;57.88;99937.78;5558572;25;20023;-76
2024/04/12 02:47:14;;;;;;;12.68;6.63;;;12.70;99.90;;;17.65;58.07;99938.75;5544714;25;20450;-76
2024/04/12 02:49:45;;;;;;;14.15;6.72;;;13.10;99.90;;;17.64;58.23;99939.75;5549623;25;20016;-76
2024/04/12 02:52:13;;;;;;;9.18;5.35;;;12.70;99.90;;;17.61;58.17;99934.72;5560947;25;20028;-76
2024/04/12 02:54:44;;;;;;;14.70;6.93;;;12.60;99.90;;;17.65;57.78;99941.41;5545821;25;20016;-78
2024/04/12 02:57:14;;;;;;;11.90;6.18;;;12.60;99.90;;;17.59;57.69;99931.34;5490992;26;20006;-77
2024/04/12 02:59:48;;;;;;;12.00;5.47;;;12.60;99.90;;;17.62;58.23;99936.38;5543351;25;20080;-77
2024/04/12 03:02:16;;;;;;;13.48;6.25;;;12.60;99.90;;;17.62;57.99;99939.88;5522149;25;20012;-75
2024/04/12 03:04:47;;;;;;;16.27;6.55;;;12.60;99.90;;;17.62;57.90;99941.66;5554608;25;20019;-76
2024/04/12 03:07:15;;;;;;;16.77;6.15;;;12.60;99.90;;;17.62;57.87;99931.06;5485760;26;20393;-76
2024/04/12 03:09:53;;;;;;;13.60;5.53;;;12.60;99.90;;;17.66;58.28;99929.84;5543915;25;20052;-75
2024/04/12 03:12:21;;;;;;;17.40;5.90;;;12.60;99.90;;;17.67;57.51;99934.19;5558092;25;20007;-75
2024/04/12 03:14:54;;;;;;;13.80;5.25;;;12.60;99.90;;;17.68;57.45;99935.88;5524352;25;20020;-75
2024/04/12 03:17:22;;;;;;;10.38;5.20;;;12.60;99.90;;;17.66;57.90;99935.16;5508355;25;19994;-74
2024/04/12 03:19:54;;;;;;;14.93;4.90;;;12.60;99.90;;;17.67;58.00;99936.84;5552359;25;20101;-76
2024/04/12 03:22:21;;;;;;;10.65;5.47;;;12.60;99.90;;;17.67;57.42;99936.84;5551497;25;20461;-76
2024/04/12 03:24:52;;;;;;;12.85;5.10;;;12.60;99.90;;;17.67;57.47;99933.34;5514567;25;20001;-75
2024/04/12 03:27:25;;;;;;;11.07;5.10;;;12.70;99.90;;;17.65;58.28;99938.75;5498376;25;20580;-76
2024/04/12 03:29:58;;;;;;;13.60;5.15;;;12.70;99.90;;;17.63;57.92;99936.25;5542529;25;20006;-76
2024/04/12 03:32:32;;;;;;;7.93;4.28;;;12.60;99.90;;;17.61;58.31;99942.66;5526818;25;20008;-77
2024/04/12 03:35:08;;;;;;;11.45;5.07;;;12.80;99.90;;;17.62;58.25;99941.66;5561027;25;20016;-76
2024/04/12 03:37:47;;;;;;;11.90;5.10;;;12.50;99.90;;;17.65;58.05;99933.47;5530090;25;20000;-76
2024/04/12 03:40:18;;;;;;;15.50;5.20;;;12.50;99.90;;;17.69;57.44;99940.19;5523844;26;20006;-77
2024/04/12 03:42:50;;;;;;;14.07;4.97;;;12.50;99.90;;;17.68;57.30;99930.56;5524145;26;20005;-76
2024/04/12 03:45:24;;;;;;;13.00;5.70;;;12.50;99.90;;;17.68;58.04;99932.38;5539001;25;20003;-75
2024/04/12 03:47:57;;;;;;;11.68;5.55;;;12.50;99.90;;;17.67;58.10;99934.19;5561075;25;20020;-76
2024/04/12 03:50:33;;;;;;;12.20;4.82;;;12.50;99.90;;;17.67;57.94;99936.84;5559118;25;20004;-77
2024/04/12 03:53:14;;;;;;;14.32;5.10;;;12.40;99.90;;;17.65;57.36;99933.47;5524453;25;20030;-76
2024/04/12 03:55:45;;;;;;;9.20;4.60;;;12.50;99.90;;;17.63;57.55;99941.56;5556575;25;20001;-76
2024/04/12 03:58:22;;;;;;;13.77;4.88;;;12.40;99.90;;;17.64;57.38;99945.03;5560886;25;20005;-76
2024/04/12 04:00:56;;;;;;;12.13;5.38;;;12.40;99.90;;;17.59;57.73;99934.00;5525290;25;20001;-76
2024/04/12 04:03:31;;;;;;;12.05;4.57;;;12.30;99.90;;;17.54;57.98;99930.88;5521066;25;19997;-76
2024/04/12 04:06:05;;;;;;;18.35;5.40;;;12.30;99.90;;;17.54;58.03;99930.88;5535862;25;20001;-76
2024/04/12 04:08:47;;;;;;;9.95;4.90;;;12.30;99.90;;;17.50;57.83;99940.06;5544545;25;20004;-75
2024/04/12 04:11:18;;;;;;;;;;;12.30;99.90;;;17.23;58.32;99939.72;5510415;26;20005;-77
2024/04/12 04:13:47;;;;;;;11.05;4.50;;;12.20;99.90;;;17.40;57.75;99933.84;5534534;25;19992;-77
2024/04/12 04:16:22;;;;;;;11.88;4.75;;;11.90;99.90;;;17.41;57.65;99935.53;5559015;25;20001;-77
2024/04/12 04:18:50;;;;;;;14.55;4.68;;;12.10;99.90;;;17.40;58.19;99939.16;5554916;25;20009;-77
2024/04/12 04:21:24;;;;;;;19.85;5.90;;;12.10;99.90;;;17.43;57.69;99944.19;5543811;25;20006;-76
2024/04/12 04:23:52;;;;;;;15.75;5.80;;;12.20;99.90;;;17.37;57.57;99932.31;5486198;25;20017;-76
2024/04/12 04:26:24;;;;;;;15.18;5.60;;;12.10;99.90;;;17.40;57.76;99939.16;5508431;25;19998;-76
2024/04/12 04:28:53;;;;;;;12.85;5.25;;;12.30;99.90;;;17.38;57.76;99935.81;5522309;26;20005;-78
2024/04/12 04:31:26;;;;;;;13.63;4.93;;;12.10;99.90;;;17.34;57.66;99935.22;5552668;25;20005;-76
2024/04/12 04:33:57;;;;;;;12.40;5.45;;;12.00;99.90;;;17.33;57.71;99933.53;5560693;25;20041;-76
2024/04/12 04:36:38;;;;;;;17.80;4.68;;;12.00;99.90;;;17.32;58.60;99936.34;5537978;25;20001;-75
2024/04/12 04:39:15;;;;;;;10.52;4.88;;;12.10;99.90;;;17.29;58.25;99931.31;5544349;25;20371;-76
2024/04/12 04:41:52;;;;;;;13.15;4.72;;;12.10;99.90;;;17.25;58.08;99930.72;5541394;25;20510;-75
2024/04/12 04:44:22;;;;;;;15.98;4.60;;;12.10;99.90;;;17.20;57.92;99932.06;5505098;26;20005;-77
2024/04/12 04:47:03;;;;;;;13.45;4.90;;;12.10;99.90;;;17.13;57.98;99937.03;5534592;25;20005;-76
2024/04/12 04:49:32;;;;;;;10.98;4.45;;;12.10;99.90;;;17.18;58.00;99936.66;5559925;25;20036;-76
2024/04/12 04:52:07;;;;;;;18.23;6.03;;;12.10;99.90;;;17.17;58.38;99946.38;5507869;26;20020;-77
2024/04/12 04:54:36;;;;;;;17.20;4.95;;;12.50;99.90;;;17.20;58.58;99953.22;5547543;25;20012;-77
2024/04/12 04:57:08;;;;;;;8.07;4.40;;;12.10;99.90;;;17.20;57.95;99950.56;5547652;25;20423;-75
2024/04/12 04:59:44;;;;;;;16.15;5.65;;;12.20;99.90;;;17.20;58.63;99958.50;5501005;25;20041;-75
2024/04/12 05:02:19;;;;;;;10.35;4.35;;;12.20;99.90;;;17.22;58.78;99956.59;5556716;25;20413;-76
2024/04/12 05:04:50;;;;;;;11.60;4.57;;;12.20;99.90;;;17.24;58.58;99955.50;5515654;25;20045;-76
2024/04/12 05:07:26;;;;;;;13.63;4.65;;;12.30;99.90;;;17.28;57.98;99962.22;5538113;25;20050;-76
2024/04/12 05:09:53;;;;;;;11.30;4.80;;;12.30;99.90;;;17.30;57.76;99952.31;5537171;25;20005;-76
2024/04/12 05:12:29;;;;;;;13.07;4.53;;;12.30;99.90;;;17.33;57.93;99953.88;5520866;25;19998;-76
2024/04/12 05:15:10;;;;;;;14.65;4.43;;;12.40;99.90;;;17.37;58.34;99958.78;5499526;25;20433;-76
2024/04/12 05:17:54;;;;;;;10.32;4.05;;;12.40;99.90;;;17.41;58.27;99952.28;5503726;26;20009;-75
2024/04/12 05:20:38;;;;;;;13.75;4.55;;;12.50;99.90;;;17.48;58.12;99958.72;5500380;26;20461;-75
2024/04/12 05:23:17;;;;;;;18.13;5.20;;;12.50;99.90;;;17.54;58.04;99955.56;5502352;25;20356;-76
2024/04/12 05:25:50;;;;;;;14.82;4.15;;;12.90;99.90;;;17.60;57.92;99952.41;5524412;25;19998;-75
2024/04/12 05:28:27;;;;;;;12.98;4.10;;;12.60;99.90;;;17.63;58.01;99956.59;5486836;25;20828;-76
2024/04/12 05:30:59;;;;;;;10.75;4.07;;;12.60;99.90;;;17.67;57.23;99954.53;5497453;25;20009;-77
2024/04/12 05:33:33;;;;;;;12.68;3.95;;;12.70;99.90;;;17.72;57.42;99960.25;5511783;25;19998;-77
2024/04/12 05:36:09;;;;;;;10.40;3.40;;;12.80;99.90;;;17.77;57.15;99958.06;5513167;26;19998;-76
2024/04/12 05:38:47;;;;;;;10.20;4.10;;;12.80;99.90;;;17.83;57.39;99968.13;5475049;25;20012;-77
2024/04/12 05:41:20;;;;;;;15.52;4.28;;;12.90;99.90;;;17.88;57.27;99966.75;5506357;26;20450;-77
2024/04/12 05:43:50;;;;;;;12.50;4.00;;;13.20;99.90;;;17.90;56.93;99969.28;5506871;26;19998;-76
2024/04/12 05:46:24;;;;;;;11.27;4.05;;;13.10;99.90;;;17.93;57.22;99963.72;5532600;25;20012;-77
2024/04/12 05:49:09;;;;;;;17.73;4.63;;;13.30;99.90;;;17.99;57.39;99971.13;5513976;25;20016;-77
2024/04/12 05:51:42;;;;;;;15.05;4.30;;;13.30;99.90;;;18.04;57.06;99967.13;5460700;26;19997;-76
2024/04/12 05:54:18;;;;;;;11.50;4.05;;;13.50;99.90;;;18.16;57.00;99970.50;5517574;25;20009;-77
2024/04/12 05:56:51;;;;;;;10.02;3.80;;;13.70;99.90;;;18.28;56.51;99964.09;5506994;26;19998;-76
2024/04/12 05:59:27;;;;;;;10.50;3.80;;;13.90;99.90;;;18.40;56.37;99960.38;5516978;26;20013;-77
2024/04/12 06:02:01;;;;;;;15.15;3.70;;;14.00;99.90;;;18.55;56.47;99971.47;5515756;25;20520;-77
2024/04/12 06:04:39;;;;;;;16.33;4.50;;;14.20;99.90;;;18.68;55.96;99977.34;5500046;26;20006;-77
2024/04/12 06:07:13;;;;;;;10.13;3.25;;;14.30;99.90;;;18.78;55.75;99980.00;5523080;25;19998;-77
2024/04/12 06:09:48;;;;;;;10.20;3.72;;;14.40;99.90;;;18.87;55.45;99977.34;5495705;26;20055;-77
2024/04/12 06:12:24;;;;;;;9.20;3.60;;;14.60;99.90;;;18.99;55.10;99975.41;5486406;26;20017;-77
2024/04/12 06:15:00;;;;;;;16.50;3.80;;;14.70;99.90;;;19.09;54.91;99979.75;5523788;25;20009;-77
2024/04/12 06:17:28;;;;;;;14.93;3.43;;;14.80;99.90;;;19.22;55.01;99986.59;5549891;25;20005;-78
2024/04/12 06:20:08;;;;;;;9.60;3.22;;;15.00;99.90;;;19.35;54.49;99979.16;5522667;26;20327;-77
2024/04/12 06:22:43;;;;;;;13.23;3.70;;;15.10;99.90;;;19.46;54.29;99979.06;5507180;26;20344;-76
2024/04/12 06:25:21;;;;;;;14.20;3.70;;;15.30;99.90;;;19.57;53.79;99979.72;5497990;26;20391;-77
2024/04/12 06:27:49;;;;;;;14.27;3.78;;;15.40;99.90;;;19.74;53.32;99978.13;5533327;25;19997;-76
2024/04/12 06:30:24;;;;;;;13.82;3.33;;;15.90;99.90;;;19.88;53.18;99979.50;5508013;26;20070;-77
2024/04/12 06:32:59;;;;;;;13.02;3.28;;;15.70;99.90;;;20.00;52.87;99979.16;5513287;26;20406;-76
2024/04/12 06:35:37;;;;;;;10.68;3.33;;;15.90;99.90;;;20.17;52.18;99980.22;5520179;26;20016;-76
2024/04/12 06:38:17;;;;;;;9.38;3.75;;;16.00;99.90;;;20.28;52.03;99982.72;5488553;26;20480;-76
2024/04/12 06:41:02;;;;;;;12.57;3.10;;;16.20;99.90;;;20.39;51.98;99986.97;5518781;26;20021;-76
2024/04/12 06:43:34;;;;;;;12.52;3.95;;;16.30;99.90;;;20.55;51.61;99989.81;5502818;26;20850;-76
2024/04/12 06:46:11;;;;;;;14.02;3.33;;;16.50;99.90;;;20.70;51.35;99994.50;5501633;26;19994;-75
2024/04/12 06:48:44;;;;;;;6.75;2.70;;;16.70;98.80;;;20.85;51.40;99986.81;5486896;26;20019;-75
2024/04/12 06:51:17;;;;;;;15.35;3.15;;;16.80;98.00;;;20.99;50.44;100002.28;5483677;26;20082;-76
2024/04/12 06:53:49;;;;;;;9.65;3.08;;;16.90;97.30;;;21.05;50.63;99990.19;5487032;26;20013;-77
2024/04/12 06:56:25;;;;;;;9.50;2.90;;;17.00;96.50;;;21.10;50.47;99994.09;5454075;26;20006;-77
2024/04/12 06:58:58;;;;;;;13.85;3.45;;;17.00;96.00;;;21.13;49.74;99990.28;5488161;26;20454;-76
2024/04/12 07:01:34;;;;;;;8.93;2.90;;;17.10;95.30;;;21.23;49.88;99999.03;5522694;26;20341;-77
2024/04/12 07:04:06;;;;;;;14.75;3.28;;;17.20;95.10;;;21.36;50.08;100002.16;5520035;26;20078;-77
2024/04/12 07:06:44;;;;;;;15.82;3.33;;;17.40;95.40;;;21.53;49.52;100000.44;5520892;26;20017;-77
2024/04/12 07:09:12;;;;;;;7.00;2.80;;;17.70;93.90;;;21.63;49.06;99995.84;5522780;25;20005;-77
2024/04/12 07:11:47;;;;;;;11.05;2.53;;;17.80;93.50;;;21.77;49.22;99997.94;5525556;26;20017;-76
2024/04/12 07:14:22;;;;;;;14.68;3.30;;;17.90;92.30;;;21.87;48.09;99995.16;5528767;25;20005;-77
2024/04/12 07:16:59;;;;;;;12.60;3.20;;;18.00;91.90;;;22.00;48.55;99996.44;5554491;25;20549;-76
2024/04/12 07:19:28;;;;;;;9.95;3.28;;;18.30;92.10;;;22.19;48.54;99996.22;5565290;25;20050;-77
2024/04/12 07:22:11;;;;;;;13.38;2.42;;;18.40;90.70;;;22.38;47.99;100002.28;5551873;25;20005;-77
2024/04/12 07:24:54;;;;;;;11.15;2.95;;;18.40;90.10;;;22.51;47.50;100000.00;5526620;26;20005;-77
2024/04/12 07:27:27;;;;;;;13.70;2.83;;;18.40;89.40;;;22.60;47.38;99997.19;5527375;25;20005;-77
2024/04/12 07:30:05;;;;;;;14.40;3.00;;;18.50;88.90;;;22.70;47.02;99994.41;5492639;26;20001;-79
2024/04/12 07:32:38;;;;;;;15.23;2.90;;;18.60;88.50;;;22.81;46.55;99996.78;5525360;26;20005;-78
2024/04/12 07:35:22;;;;;;;11.57;2.78;;;18.70;88.10;;;22.90;46.34;99993.13;5526821;26;20464;-77
2024/04/12 07:37:54;;;;;;;7.75;2.58;;;18.90;87.80;;;23.03;46.06;99995.31;5527103;26;20017;-76
2024/04/12 07:40:31;;;;;;;9.80;2.83;;;19.10;87.40;;;23.10;45.57;99983.81;5529932;25;20001;-77
2024/04/12 07:42:59;;;;;;;12.57;3.13;;;19.10;86.30;;;23.26;45.80;99997.16;5526498;26;20020;-76
2024/04/12 07:45:32;;;;;;;11.95;3.40;;;19.20;86.10;;;23.41;45.86;99999.22;5525571;26;20005;-78
2024/04/12 07:48:11;;;;;;;14.10;2.80;;;19.40;86.20;;;23.56;45.66;99994.84;5525649;26;20005;-76
2024/04/12 07:50:46;;;;;;;13.77;3.03;;;19.60;86.30;;;23.77;44.74;99995.16;5526055;25;20017;-77
2024/04/12 07:53:22;;;;;;;14.10;3.45;;;20.00;84.40;;;23.94;44.69;99995.97;5524174;26;20005;-78
2024/04/12 07:56:07;;;;;;;8.82;3.22;;;20.10;83.80;;;24.09;44.53;99997.75;5524386;25;20013;-77
2024/04/12 07:58:36;;;;;;;13.85;3.97;;;20.20;83.70;;;24.29;43.97;99998.22;5526957;26;20005;-76
2024/04/12 08:01:15;;;;;;;14.52;3.05;;;20.50;82.10;;;24.46;44.05;100002.50;5497342;26;20026;-77
2024/04/12 08:03:50;;;;;;;14.75;3.60;;;20.70;82.10;;;24.61;43.47;100000.72;5525432;26;20001;-76
2024/04/12 08:09:21;;;;;;;11.73;3.65;;;20.70;79.40;;;24.81;42.45;100009.16;5526121;26;20005;-76
2024/04/12 08:11:58;;;;;;;12.80;3.47;;;20.70;78.90;;;24.92;41.98;100007.94;5526451;26;20020;-77
2024/04/12 08:14:34;;;;;;;11.82;3.85;;;20.80;78.60;;;25.01;41.87;100010.41;5524525;26;20005;-77
2024/04/12 08:17:14;;;;;;;14.13;3.85;;;20.90;78.10;;;25.10;40.99;100012.00;5523471;26;20002;-77
2024/04/12 08:19:47;;;;;;;9.15;3.17;;;20.90;77.10;;;25.22;41.44;100015.94;5526224;26;20202;-75
2024/04/12 08:22:20;;;;;;;10.65;2.97;;;21.10;78.10;;;25.41;40.92;100017.31;5527929;26;20016;-76
2024/04/12 08:24:58;;;;;;;14.77;4.40;;;21.40;76.60;;;25.55;40.49;100018.41;5525928;26;20016;-77
2024/04/12 08:27:26;;;;;;;11.30;3.75;;;21.40;75.80;;;25.65;40.38;100018.97;5533710;25;20453;-75
2024/04/12 08:30:13;;;;;;;16.60;3.70;;;21.50;75.80;;;25.74;39.84;100021.41;5512648;26;20012;-77
2024/04/12 08:32:48;;;;;;;10.65;3.85;;;21.60;74.30;;;25.81;39.74;100021.50;5559501;25;20019;-77
2024/04/12 08:35:24;;;;;;;11.15;4.38;;;21.60;74.20;;;25.90;39.45;100023.06;5564335;25;20016;-75
2024/04/12 08:37:57;;;;;;;12.75;3.28;;;21.80;74.20;;;25.99;39.10;100018.44;5565051;25;20452;-76
2024/04/12 08:40:37;;;;;;;7.93;3.20;;;21.80;73.10;;;26.05;38.70;100015.06;5529522;25;19997;-76
2024/04/12 08:43:10;;;;;;;14.65;4.63;;;21.90;72.30;;;26.07;38.83;100019.22;5561829;25;20005;-75
2024/04/12 08:45:47;;;;;;;15.60;4.07;;;22.10;72.70;;;26.27;38.40;100017.66;5561402;25;20004;-76
2024/04/12 08:48:22;;;;;;;10.43;3.60;;;22.40;71.00;;;26.39;38.22;100020.69;5546342;25;20013;-76
2024/04/12 08:51:04;;;;;;;10.23;2.55;;;22.40;71.20;;;26.49;37.96;100018.56;5542140;25;20005;-74
2024/04/12 08:53:34;;;;;;;8.75;4.00;;;22.40;70.70;;;26.58;37.80;100024.66;5566895;25;20154;-76
2024/04/12 08:56:17;;;;;;;9.32;3.42;;;22.30;70.40;;;26.61;37.96;100024.31;5571974;25;20004;-75
2024/04/12 08:58:52;;;;;;;14.10;4.03;;;22.30;71.00;;;26.71;38.26;100032.88;5574250;25;20011;-76
2024/04/12 09:01:29;;;;;;;14.30;4.25;;;22.70;71.80;;;26.92;38.11;100032.97;5573834;25;20012;-76
2024/04/12 09:04:04;;;;;;;10.07;4.93;;;22.90;70.30;;;27.04;37.18;100026.03;5573779;25;20005;-76
2024/04/12 09:06:39;;;;;;;12.00;4.95;;;23.10;69.50;;;27.15;37.23;100022.88;5572805;25;20046;-77
2024/04/12 09:09:13;;;;;;;14.98;5.38;;;23.10;69.40;;;27.30;37.20;100020.94;5538907;25;20016;-77
2024/04/12 09:11:54;;;;;;;12.07;4.30;;;23.40;67.90;;;27.46;37.19;100014.50;5567391;25;20016;-74
2024/04/12 09:14:27;;;;;;;11.98;4.57;;;23.50;67.50;;;27.51;36.71;100028.19;5529688;26;20005;-75
2024/04/12 09:17:06;;;;;;;10.27;4.55;;;23.60;66.70;;;27.56;36.10;100022.25;5527701;26;20017;-76
2024/04/12 09:19:39;;;;;;;13.55;3.40;;;23.50;65.60;;;27.62;35.86;100030.38;5529337;25;19996;-77
2024/04/12 09:22:17;;;;;;;12.88;3.30;;;23.50;66.80;;;27.75;35.48;100024.25;5526097;25;20001;-76
2024/04/12 09:24:55;;;;;;;14.85;3.88;;;23.70;66.20;;;27.87;35.37;100013.75;5565948;25;20004;-77
2024/04/12 09:27:43;;;;;;;9.43;3.05;;;23.80;65.60;;;28.02;35.36;100015.34;5566719;25;20001;-77
2024/04/12 09:33:20;;;;;;;14.20;3.80;;;23.90;65.80;;;28.18;36.52;100003.44;5545171;25;20004;-76
2024/04/12 09:36:03;;;;;;;8.95;3.67;;;24.20;66.80;;;28.42;36.37;99994.84;5550654;25;20083;-76
2024/04/12 09:38:39;;;;;;;8.45;3.33;;;24.60;65.80;;;28.61;35.71;100004.06;5547303;25;20011;-77
2024/04/12 09:44:03;;;;;;;11.00;3.40;;;24.70;63.40;;;28.82;34.33;99999.38;5563626;25;20460;-75
2024/04/12 09:46:47;;;;;;;9.85;3.53;;;24.80;62.50;;;28.87;34.33;100009.56;5564054;25;20012;-75
2024/04/12 10:38:54;;;;;;;14.68;4.68;;;25.80;57.30;;;29.87;32.62;99968.16;5517447;25;20351;-75
2024/04/12 10:41:35;;;;;;;13.25;4.07;;;26.00;57.30;;;29.96;32.91;99970.41;5497044;26;19998;-76
2024/04/12 10:44:10;;;;;;;11.20;3.57;;;26.10;57.40;;;30.08;33.00;99979.50;5520663;26;20182;-75
2024/04/12 10:46:46;;;;;;;10.13;4.13;;;26.20;57.70;;;30.18;32.69;99979.91;5494878;26;20122;-75
2024/04/12 10:49:21;;;;;;;10.48;4.53;;;26.20;57.60;;;30.29;32.84;99973.84;5514832;26;20346;-75
2024/04/12 10:51:59;;;;;;;13.23;4.20;;;26.50;57.90;;;30.43;32.43;99974.63;5516476;26;20017;-75
2024/04/12 10:54:29;;;;;;;14.63;5.20;;;26.60;57.10;;;30.49;32.64;99976.50;5513707;26;20693;-76
2024/04/12 10:57:05;;;;;;;11.02;4.15;;;26.60;57.10;;;30.57;32.51;99972.69;5526362;26;20017;-74
2024/04/12 10:59:42;;;;;;;10.23;4.55;;;26.60;56.60;;;30.64;32.00;99960.81;5561205;25;20019;-76
2024/04/12 11:02:17;;;;;;;11.15;3.97;;;26.80;55.80;;;30.72;31.96;99959.75;5528163;25;20026;-75
2024/04/12 11:05:05;;;;;;;13.90;3.92;;;26.80;55.70;;;30.79;31.42;99957.84;5501069;26;20006;-76
2024/04/12 11:07:43;;;;;;;11.82;4.22;;;26.80;54.30;;;30.86;31.51;99964.84;5554164;25;20532;-75
2024/04/12 11:10:24;;;;;;;11.07;4.05;;;27.00;55.60;;;30.98;30.96;99958.78;5535174;25;20012;-75
2024/04/12 11:13:06;;;;;;;13.77;4.35;;;27.20;54.60;;;31.07;31.35;99969.09;5518785;25;20005;-75
2024/04/12 11:33:05;;;;;;;12.13;5.28;;;27.50;54.50;;;31.34;31.26;99948.91;5537965;25;20016;-76
2024/04/12 11:35:37;;;;;;;9.35;4.35;;;27.20;54.80;;;31.36;30.97;99943.25;5520471;26;20027;-76
2024/04/12 11:38:13;;;;;;;10.05;5.32;;;27.40;54.30;;;31.46;30.62;99942.75;5551617;25;20015;-77
2024/04/12 11:40:48;;;;;;;13.45;4.82;;;27.50;53.60;;;31.54;30.69;99942.53;5532156;25;20020;-76
2024/04/12 11:43:19;;;;;;;13.43;5.07;;;27.60;53.30;;;31.58;30.24;99935.63;5536394;25;20004;-76
2024/04/12 11:45:48;;;;;;;16.45;5.15;;;27.50;53.10;;;31.55;30.52;99928.75;5544079;25;20017;-75
2024/04/12 11:48:28;;;;;;;14.38;5.95;;;27.40;53.20;;;31.55;30.03;99933.38;5511169;25;20030;-77
2024/04/12 11:51:08;;;;;;;9.80;4.93;;;27.20;52.60;;;31.39;30.18;99916.59;5515281;26;19998;-76
2024/04/12 11:53:43;;;;;;;10.60;5.53;;;27.00;53.20;;;31.37;30.41;99918.69;5521861;26;20556;-77
2024/04/12 11:56:18;;;;;;;15.13;5.80;;;27.20;53.50;;;31.48;30.25;99913.59;5522578;25;19998;-76